^^
Your Local Weather - Clay, NY Station Historical Data
Daily Summary for January 10, 2018 Units:  Both    English   Metric
« Previous Day
Next Day »
Daily Weekly Monthly Yearly Custom
  High: Low: Average:
Temperature: 41.9 °F /  5.5 °C 21.2 °F /  -6 °C 37.3 °F /  2.9 °C
Dew Point: 31.4 °F /  -0.3 °C 17.7 °F /  -7.9 °C 25.6 °F /  -3.6 °C
Humidity: 86% 49% 63%
Wind Speed: 7.0mph /  11.3km/h - 3.6mph /  5.8km/h
Wind Gust: 11.0mph /  17.7km/h - -
Wind- - SE
Pressure: 30.38 in /  1028.7 hPa 30.13 in /  1020.2 hPa -
Precipitation: 0.24 in /  6.1 mm    
Historical Graphs
 
 
Tabular Data for January 10, 2018
Time Temperature Dew Point Pressure Wind Wind Speed Wind Gust Humidity Rainfall Rate (Hourly) solar
00:38 28.1 °F /  -2.2 °C 23.0 °F /  -5 °C 30.36in /  1028hPa Calm     81% 0.00in /  0mm 0 W/m2
04:02 27.1 °F /  -2.7 °C 22.0 °F /  -5.6 °C 30.38in /  1028.7hPa Calm     81% 0.00in /  0mm 0 W/m2
04:45 27.1 °F /  -2.7 °C 22.0 °F /  -5.6 °C 30.38in /  1028.7hPa Calm     81% 0.00in /  0mm 0 W/m2
06:45 25.6 °F /  -3.6 °C 21.4 °F /  -5.9 °C 30.37in /  1028.3hPa Calm     84% 0.00in /  0mm 0 W/m2
07:58 21.2 °F /  -6 °C 17.7 °F /  -7.9 °C 30.35in /  1027.7hPa Calm     86% 0.00in /  0mm 16 W/m2
09:18 29.5 °F /  -1.4 °C 21.3 °F /  -5.9 °C 30.34in /  1027.3hPa SE 2.0mph /  3.2km/h 5.0mph /  8km/h 71% 0.00in /  0mm 246 W/m2
09:24 29.8 °F /  -1.2 °C 21.2 °F /  -6 °C 30.35in /  1027.7hPa SE 3.0mph /  4.8km/h 3.0mph /  4.8km/h 70% 0.00in /  0mm 241 W/m2
09:26 29.8 °F /  -1.2 °C 21.2 °F /  -6 °C 30.35in /  1027.7hPa SSE 3.0mph /  4.8km/h 3.0mph /  4.8km/h 70% 0.00in /  0mm 227 W/m2
09:28 29.8 °F /  -1.2 °C 21.2 °F /  -6 °C 30.34in /  1027.3hPa SSE 3.0mph /  4.8km/h 4.0mph /  6.4km/h 70% 0.00in /  0mm 269 W/m2
09:30 29.9 °F /  -1.2 °C 21.0 °F /  -6.1 °C 30.34in /  1027.3hPa ESE 4.0mph /  6.4km/h 4.0mph /  6.4km/h 69% 0.00in /  0mm 272 W/m2
09:34 30.2 °F /  -1 °C 21.2 °F /  -6 °C 30.34in /  1027.3hPa SE 3.0mph /  4.8km/h 4.0mph /  6.4km/h 69% 0.00in /  0mm 264 W/m2
09:38 30.4 °F /  -0.9 °C 21.4 °F /  -5.9 °C 30.34in /  1027.3hPa ESE 3.0mph /  4.8km/h 4.0mph /  6.4km/h 69% 0.00in /  0mm 290 W/m2
09:44 30.6 °F /  -0.8 °C 21.3 °F /  -5.9 °C 30.34in /  1027.3hPa SE 3.0mph /  4.8km/h 4.0mph /  6.4km/h 68% 0.00in /  0mm 302 W/m2
09:46 30.6 °F /  -0.8 °C 21.3 °F /  -5.9 °C 30.34in /  1027.3hPa SE 3.0mph /  4.8km/h 4.0mph /  6.4km/h 68% 0.00in /  0mm 309 W/m2
09:52 30.9 °F /  -0.6 °C 21.6 °F /  -5.8 °C 30.34in /  1027.3hPa East 3.0mph /  4.8km/h 3.0mph /  4.8km/h 68% 0.00in /  0mm 332 W/m2
09:58 31.0 °F /  -0.6 °C 21.3 °F /  -5.9 °C 30.34in /  1027.3hPa ESE 3.0mph /  4.8km/h 7.0mph /  11.3km/h 67% 0.00in /  0mm 330 W/m2
09:59 31.0 °F /  -0.6 °C 21.3 °F /  -5.9 °C 30.34in /  1027.3hPa SE 3.0mph /  4.8km/h 3.0mph /  4.8km/h 67% 0.00in /  0mm 325 W/m2
10:03 31.3 °F /  -0.4 °C 21.6 °F /  -5.8 °C 30.35in /  1027.7hPa SE 3.0mph /  4.8km/h 4.0mph /  6.4km/h 67% 0.00in /  0mm 334 W/m2
10:05 31.2 °F /  -0.4 °C 21.2 °F /  -6 °C 30.35in /  1027.7hPa East 3.0mph /  4.8km/h 5.0mph /  8km/h 66% 0.00in /  0mm 322 W/m2
10:09 31.4 °F /  -0.3 °C 21.3 °F /  -5.9 °C 30.35in /  1027.7hPa SE 3.0mph /  4.8km/h 3.0mph /  4.8km/h 66% 0.00in /  0mm 366 W/m2
10:12 31.3 °F /  -0.4 °C 21.3 °F /  -5.9 °C 30.35in /  1027.7hPa SE 3.0mph /  4.8km/h 7.0mph /  11.3km/h 66% 0.00in /  0mm 357 W/m2
10:16 31.2 °F /  -0.4 °C 21.2 °F /  -6 °C 30.35in /  1027.7hPa SE 4.0mph /  6.4km/h 7.0mph /  11.3km/h 66% 0.00in /  0mm 350 W/m2
10:22 31.6 °F /  -0.2 °C 21.5 °F /  -5.8 °C 30.34in /  1027.3hPa SE 3.0mph /  4.8km/h 3.0mph /  4.8km/h 66% 0.00in /  0mm 313 W/m2
10:23 31.9 °F /  -0.1 °C 21.8 °F /  -5.7 °C 30.34in /  1027.3hPa SE 3.0mph /  4.8km/h 3.0mph /  4.8km/h 66% 0.00in /  0mm 350 W/m2
10:32 31.8 °F /  -0.1 °C 21.4 °F /  -5.9 °C 30.34in /  1027.3hPa SE 2.0mph /  3.2km/h 2.0mph /  3.2km/h 65% 0.00in /  0mm 283 W/m2
10:38 31.8 °F /  -0.1 °C 21.4 °F /  -5.9 °C 30.33in /  1027hPa SSE 3.0mph /  4.8km/h 3.0mph /  4.8km/h 65% 0.00in /  0mm 308 W/m2
10:39 31.8 °F /  -0.1 °C 21.0 °F /  -6.1 °C 30.33in /  1027hPa SSE 3.0mph /  4.8km/h 3.0mph /  4.8km/h 64% 0.00in /  0mm 330 W/m2
10:52 32.3 °F /  0.2 °C 21.5 °F /  -5.8 °C 30.32in /  1026.6hPa SSE 4.0mph /  6.4km/h 4.0mph /  6.4km/h 64% 0.00in /  0mm 315 W/m2
10:54 32.5 °F /  0.3 °C 21.7 °F /  -5.7 °C 30.32in /  1026.6hPa ESE 4.0mph /  6.4km/h 4.0mph /  6.4km/h 64% 0.00in /  0mm 387 W/m2
10:59 32.7 °F /  0.4 °C 21.9 °F /  -5.6 °C 30.31in /  1026.3hPa SSE 4.0mph /  6.4km/h 7.0mph /  11.3km/h 64% 0.00in /  0mm 366 W/m2
11:06 33.1 °F /  0.6 °C 21.9 °F /  -5.6 °C 30.31in /  1026.3hPa SSE 5.0mph /  8km/h 7.0mph /  11.3km/h 63% 0.00in /  0mm 406 W/m2
11:10 33.3 °F /  0.7 °C 22.1 °F /  -5.5 °C 30.31in /  1026.3hPa SE 5.0mph /  8km/h 5.0mph /  8km/h 63% 0.00in /  0mm 434 W/m2
11:16 33.9 °F /  1.1 °C 21.9 °F /  -5.6 °C 30.29in /  1025.6hPa SE 4.0mph /  6.4km/h 5.0mph /  8km/h 61% 0.00in /  0mm 411 W/m2
11:22 34.2 °F /  1.2 °C 21.7 °F /  -5.7 °C 30.29in /  1025.6hPa SE 5.0mph /  8km/h 5.0mph /  8km/h 60% 0.00in /  0mm 397 W/m2
11:25 34.1 °F /  1.2 °C 21.7 °F /  -5.7 °C 30.29in /  1025.6hPa SSE 5.0mph /  8km/h 8.0mph /  12.9km/h 60% 0.00in /  0mm 396 W/m2
11:32 34.3 °F /  1.3 °C 21.8 °F /  -5.7 °C 30.29in /  1025.6hPa ESE 4.0mph /  6.4km/h 6.0mph /  9.7km/h 60% 0.00in /  0mm 427 W/m2
11:38 33.8 °F /  1 °C 21.8 °F /  -5.7 °C 30.29in /  1025.6hPa SSE 2.0mph /  3.2km/h 6.0mph /  9.7km/h 61% 0.00in /  0mm 439 W/m2
11:50 33.6 °F /  0.9 °C 21.6 °F /  -5.8 °C 30.28in /  1025.3hPa NE 2.0mph /  3.2km/h 2.0mph /  3.2km/h 61% 0.00in /  0mm 399 W/m2
11:52 34.0 °F /  1.1 °C 22.0 °F /  -5.6 °C 30.28in /  1025.3hPa SE 2.0mph /  3.2km/h 2.0mph /  3.2km/h 61% 0.00in /  0mm 443 W/m2
11:58 34.4 °F /  1.3 °C 21.9 °F /  -5.6 °C 30.28in /  1025.3hPa ENE 2.0mph /  3.2km/h 2.0mph /  3.2km/h 60% 0.00in /  0mm 369 W/m2
12:04 35.0 °F /  1.7 °C 22.1 °F /  -5.5 °C 30.27in /  1024.9hPa NE 2.0mph /  3.2km/h 2.0mph /  3.2km/h 59% 0.00in /  0mm 462 W/m2
12:10 34.6 °F /  1.4 °C 22.1 °F /  -5.5 °C 30.27in /  1024.9hPa East 2.0mph /  3.2km/h 3.0mph /  4.8km/h 60% 0.00in /  0mm 452 W/m2
12:12 34.9 °F /  1.6 °C 22.4 °F /  -5.3 °C 30.26in /  1024.6hPa East 2.0mph /  3.2km/h 3.0mph /  4.8km/h 60% 0.00in /  0mm 450 W/m2
12:24 36.6 °F /  2.6 °C 22.8 °F /  -5.1 °C 30.27in /  1024.9hPa NE 1.0mph /  1.6km/h 2.0mph /  3.2km/h 57% 0.06in /  1.52mm 448 W/m2
12:30 37.3 °F /  2.9 °C 22.2 °F /  -5.4 °C 30.26in /  1024.6hPa NE 1.0mph /  1.6km/h 1.0mph /  1.6km/h 54% 0.06in /  1.52mm 445 W/m2
12:35 36.5 °F /  2.5 °C 22.3 °F /  -5.4 °C 30.26in /  1024.6hPa NNW 1.0mph /  1.6km/h 3.0mph /  4.8km/h 56% 0.04in /  1.02mm 443 W/m2
12:42 36.2 °F /  2.3 °C 22.8 °F /  -5.1 °C 30.26in /  1024.6hPa East 1.0mph /  1.6km/h 1.0mph /  1.6km/h 58% 0.04in /  1.02mm 441 W/m2
12:48 37.2 °F /  2.9 °C 22.9 °F /  -5.1 °C 30.26in /  1024.6hPa North 1.0mph /  1.6km/h 3.0mph /  4.8km/h 56% 0.06in /  1.52mm 439 W/m2
12:54 36.3 °F /  2.4 °C 22.1 °F /  -5.5 °C 30.26in /  1024.6hPa ENE 2.0mph /  3.2km/h 4.0mph /  6.4km/h 56% 0.06in /  1.52mm 420 W/m2
12:59 36.2 °F /  2.3 °C 22.8 °F /  -5.1 °C 30.25in /  1024.3hPa SE 2.0mph /  3.2km/h 6.0mph /  9.7km/h 58% 0.04in /  1.02mm 432 W/m2
13:05 36.5 °F /  2.5 °C 23.1 °F /  -4.9 °C 30.23in /  1023.6hPa East 3.0mph /  4.8km/h 6.0mph /  9.7km/h 58% 0.04in /  1.02mm 425 W/m2
13:12 36.9 °F /  2.7 °C 23.1 °F /  -4.9 °C 30.24in /  1023.9hPa ENE 2.0mph /  3.2km/h 3.0mph /  4.8km/h 57% 0.05in /  1.27mm 422 W/m2
13:18 37.6 °F /  3.1 °C 23.3 °F /  -4.8 °C 30.23in /  1023.6hPa SE 2.0mph /  3.2km/h 4.0mph /  6.4km/h 56% 0.05in /  1.27mm 418 W/m2
13:30 39.7 °F /  4.3 °C 23.0 °F /  -5 °C 30.21in /  1022.9hPa SE 5.0mph /  8km/h 5.0mph /  8km/h 51% 0.04in /  1.02mm 411 W/m2
13:34 39.5 °F /  4.2 °C 22.8 °F /  -5.1 °C 30.21in /  1022.9hPa SSE 7.0mph /  11.3km/h 7.0mph /  11.3km/h 51% 0.07in /  1.78mm 418 W/m2
13:40 40.0 °F /  4.4 °C 24.2 °F /  -4.3 °C 30.21in /  1022.9hPa South 6.0mph /  9.7km/h 6.0mph /  9.7km/h 53% 0.07in /  1.78mm 461 W/m2
13:46 40.1 °F /  4.5 °C 22.9 °F /  -5.1 °C 30.20in /  1022.6hPa South 6.0mph /  9.7km/h 8.0mph /  12.9km/h 50% 0.04in /  1.02mm 383 W/m2
13:52 39.9 °F /  4.4 °C 23.2 °F /  -4.9 °C 30.20in /  1022.6hPa SSE 7.0mph /  11.3km/h 7.0mph /  11.3km/h 51% 0.00in /  0mm 211 W/m2
13:58 40.0 °F /  4.4 °C 23.8 °F /  -4.6 °C 30.20in /  1022.6hPa SSE 5.0mph /  8km/h 8.0mph /  12.9km/h 52% 0.00in /  0mm 239 W/m2
14:02 40.0 °F /  4.4 °C 23.3 °F /  -4.8 °C 30.20in /  1022.6hPa South 5.0mph /  8km/h 8.0mph /  12.9km/h 51% 0.06in /  1.52mm 297 W/m2
14:08 40.3 °F /  4.6 °C 23.6 °F /  -4.7 °C 30.20in /  1022.6hPa SE 6.0mph /  9.7km/h 8.0mph /  12.9km/h 51% 0.06in /  1.52mm 260 W/m2
14:16 40.4 °F /  4.7 °C 23.2 °F /  -4.9 °C 30.20in /  1022.6hPa SE 5.0mph /  8km/h 7.0mph /  11.3km/h 50% 0.04in /  1.02mm 339 W/m2
14:22 40.6 °F /  4.8 °C 23.4 °F /  -4.8 °C 30.19in /  1022.2hPa SE 5.0mph /  8km/h 5.0mph /  8km/h 50% 0.00in /  0mm 330 W/m2
14:28 40.9 °F /  4.9 °C 23.7 °F /  -4.6 °C 30.20in /  1022.6hPa SSE 5.0mph /  8km/h 6.0mph /  9.7km/h 50% 0.00in /  0mm 406 W/m2
14:36 41.6 °F /  5.3 °C 24.3 °F /  -4.3 °C 30.19in /  1022.2hPa South 4.0mph /  6.4km/h 4.0mph /  6.4km/h 50% 0.05in /  1.27mm 98 W/m2
14:42 41.0 °F /  5 °C 23.8 °F /  -4.6 °C 30.19in /  1022.2hPa SE 4.0mph /  6.4km/h 4.0mph /  6.4km/h 50% 0.05in /  1.27mm 220 W/m2
14:49 41.6 °F /  5.3 °C 24.3 °F /  -4.3 °C 30.18in /  1021.9hPa SE 3.0mph /  4.8km/h 6.0mph /  9.7km/h 50% 0.00in /  0mm 320 W/m2
14:56 41.7 °F /  5.4 °C 24.4 °F /  -4.2 °C 30.18in /  1021.9hPa SSE 3.0mph /  4.8km/h 6.0mph /  9.7km/h 50% 0.00in /  0mm 301 W/m2
15:03 41.9 °F /  5.5 °C 24.1 °F /  -4.4 °C 30.19in /  1022.2hPa South 4.0mph /  6.4km/h 4.0mph /  6.4km/h 49% 0.05in /  1.27mm 260 W/m2
15:10 41.7 °F /  5.4 °C 24.4 °F /  -4.2 °C 30.20in /  1022.6hPa SSE 4.0mph /  6.4km/h 4.0mph /  6.4km/h 50% 0.05in /  1.27mm 234 W/m2
15:15 41.7 °F /  5.4 °C 23.9 °F /  -4.5 °C 30.20in /  1022.6hPa SE 4.0mph /  6.4km/h 4.0mph /  6.4km/h 49% 0.04in /  1.02mm 190 W/m2
15:22 41.7 °F /  5.4 °C 23.9 °F /  -4.5 °C 30.20in /  1022.6hPa SSE 3.0mph /  4.8km/h 3.0mph /  4.8km/h 49% 0.00in /  0mm 130 W/m2
15:28 41.7 °F /  5.4 °C 24.9 °F /  -3.9 °C 30.20in /  1022.6hPa South 3.0mph /  4.8km/h 4.0mph /  6.4km/h 51% 0.00in /  0mm 163 W/m2
15:33 41.4 °F /  5.2 °C 24.6 °F /  -4.1 °C 30.19in /  1022.2hPa SE 2.0mph /  3.2km/h 3.0mph /  4.8km/h 51% 0.00in /  0mm 153 W/m2
15:40 41.6 °F /  5.3 °C 24.8 °F /  -4 °C 30.19in /  1022.2hPa SE 3.0mph /  4.8km/h 3.0mph /  4.8km/h 51% 0.00in /  0mm 135 W/m2
15:46 41.7 °F /  5.4 °C 24.4 °F /  -4.2 °C 30.20in /  1022.6hPa SE 3.0mph /  4.8km/h 3.0mph /  4.8km/h 50% 0.00in /  0mm 105 W/m2
15:52 41.5 °F /  5.3 °C 25.2 °F /  -3.8 °C 30.19in /  1022.2hPa SE 4.0mph /  6.4km/h 6.0mph /  9.7km/h 52% 0.00in /  0mm 151 W/m2
15:58 41.3 °F /  5.2 °C 25.4 °F /  -3.7 °C 30.18in /  1021.9hPa South 5.0mph /  8km/h 6.0mph /  9.7km/h 53% 0.00in /  0mm 62 W/m2
16:04 41.2 °F /  5.1 °C 25.8 °F /  -3.4 °C 30.18in /  1021.9hPa SSE 5.0mph /  8km/h 5.0mph /  8km/h 54% 0.00in /  0mm 56 W/m2
16:12 40.9 °F /  4.9 °C 26.4 °F /  -3.1 °C 30.18in /  1021.9hPa SSE 2.0mph /  3.2km/h 3.0mph /  4.8km/h 56% 0.00in /  0mm 30 W/m2
16:18 40.7 °F /  4.8 °C 26.2 °F /  -3.2 °C 30.18in /  1021.9hPa SSE 1.0mph /  1.6km/h 3.0mph /  4.8km/h 56% 0.00in /  0mm 23 W/m2
16:23 40.6 °F /  4.8 °C 26.5 °F /  -3.1 °C 30.18in /  1021.9hPa SSE 2.0mph /  3.2km/h 5.0mph /  8km/h 57% 0.00in /  0mm 16 W/m2
16:30 40.6 °F /  4.8 °C 26.5 °F /  -3.1 °C 30.18in /  1021.9hPa SE 3.0mph /  4.8km/h 3.0mph /  4.8km/h 57% 0.00in /  0mm 12 W/m2
16:35 40.6 °F /  4.8 °C 26.5 °F /  -3.1 °C 30.18in /  1021.9hPa SSE 3.0mph /  4.8km/h 4.0mph /  6.4km/h 57% 0.00in /  0mm 7 W/m2
16:42 40.5 °F /  4.7 °C 26.4 °F /  -3.1 °C 30.18in /  1021.9hPa SSE 3.0mph /  4.8km/h 4.0mph /  6.4km/h 57% 0.00in /  0mm 0 W/m2
16:48 40.4 °F /  4.7 °C 26.8 °F /  -2.9 °C 30.18in /  1021.9hPa SSE 2.0mph /  3.2km/h 4.0mph /  6.4km/h 58% 0.00in /  0mm 0 W/m2
16:53 40.3 °F /  4.6 °C 26.3 °F /  -3.2 °C 30.17in /  1021.6hPa SSE 3.0mph /  4.8km/h 7.0mph /  11.3km/h 57% 0.00in /  0mm 0 W/m2
17:00 40.3 °F /  4.6 °C 26.7 °F /  -2.9 °C 30.17in /  1021.6hPa SSE 4.0mph /  6.4km/h 4.0mph /  6.4km/h 58% 0.00in /  0mm 0 W/m2
17:06 40.2 °F /  4.6 °C 27.0 °F /  -2.8 °C 30.17in /  1021.6hPa SE 4.0mph /  6.4km/h 5.0mph /  8km/h 59% 0.00in /  0mm 0 W/m2
17:12 40.2 °F /  4.6 °C 27.0 °F /  -2.8 °C 30.17in /  1021.6hPa SE 4.0mph /  6.4km/h 5.0mph /  8km/h 59% 0.00in /  0mm 0 W/m2
17:18 40.2 °F /  4.6 °C 27.4 °F /  -2.6 °C 30.17in /  1021.6hPa SE 4.0mph /  6.4km/h 5.0mph /  8km/h 60% 0.00in /  0mm 0 W/m2
17:24 40.0 °F /  4.4 °C 27.2 °F /  -2.7 °C 30.17in /  1021.6hPa SSE 3.0mph /  4.8km/h 5.0mph /  8km/h 60% 0.00in /  0mm 0 W/m2
17:29 40.0 °F /  4.4 °C 27.2 °F /  -2.7 °C 30.17in /  1021.6hPa SSE 3.0mph /  4.8km/h 5.0mph /  8km/h 60% 0.00in /  0mm 0 W/m2
17:36 40.1 °F /  4.5 °C 27.3 °F /  -2.6 °C 30.16in /  1021.2hPa SE 4.0mph /  6.4km/h 7.0mph /  11.3km/h 60% 0.00in /  0mm 0 W/m2
17:48 40.2 °F /  4.6 °C 27.4 °F /  -2.6 °C 30.16in /  1021.2hPa SSE 4.0mph /  6.4km/h 6.0mph /  9.7km/h 60% 0.00in /  0mm 0 W/m2
17:53 40.2 °F /  4.6 °C 27.4 °F /  -2.6 °C 30.16in /  1021.2hPa South 4.0mph /  6.4km/h 4.0mph /  6.4km/h 60% 0.00in /  0mm 0 W/m2
18:00 39.9 °F /  4.4 °C 27.5 °F /  -2.5 °C 30.15in /  1020.9hPa SE 2.0mph /  3.2km/h 6.0mph /  9.7km/h 61% 0.00in /  0mm 0 W/m2
18:06 39.8 °F /  4.3 °C 27.4 °F /  -2.6 °C 30.16in /  1021.2hPa South 3.0mph /  4.8km/h 6.0mph /  9.7km/h 61% 0.00in /  0mm 0 W/m2
18:12 40.2 °F /  4.6 °C 27.8 °F /  -2.3 °C 30.16in /  1021.2hPa SE 5.0mph /  8km/h 5.0mph /  8km/h 61% 0.00in /  0mm 0 W/m2
18:32 40.3 °F /  4.6 °C 27.9 °F /  -2.3 °C 30.15in /  1020.9hPa SSE 6.0mph /  9.7km/h 6.0mph /  9.7km/h 61% 0.00in /  0mm 0 W/m2
18:38 40.2 °F /  4.6 °C 27.8 °F /  -2.3 °C 30.15in /  1020.9hPa SSE 6.0mph /  9.7km/h 6.0mph /  9.7km/h 61% 0.00in /  0mm 0 W/m2
18:44 40.4 °F /  4.7 °C 28.4 °F /  -2 °C 30.16in /  1021.2hPa SSE 5.0mph /  8km/h 6.0mph /  9.7km/h 62% 0.00in /  0mm 0 W/m2
18:49 40.4 °F /  4.7 °C 28.4 °F /  -2 °C 30.16in /  1021.2hPa SSE 5.0mph /  8km/h 5.0mph /  8km/h 62% 0.00in /  0mm 0 W/m2
18:56 40.4 °F /  4.7 °C 28.4 °F /  -2 °C 30.16in /  1021.2hPa SSE 6.0mph /  9.7km/h 9.0mph /  14.5km/h 62% 0.00in /  0mm 0 W/m2
19:02 40.4 °F /  4.7 °C 28.4 °F /  -2 °C 30.16in /  1021.2hPa SSE 6.0mph /  9.7km/h 8.0mph /  12.9km/h 62% 0.00in /  0mm 0 W/m2
19:08 40.2 °F /  4.6 °C 29.0 °F /  -1.7 °C 30.16in /  1021.2hPa SSE 6.0mph /  9.7km/h 8.0mph /  12.9km/h 64% 0.00in /  0mm 0 W/m2
19:14 39.8 °F /  4.3 °C 29.7 °F /  -1.3 °C 30.15in /  1020.9hPa SE 5.0mph /  8km/h 6.0mph /  9.7km/h 67% 0.00in /  0mm 0 W/m2
19:19 39.3 °F /  4.1 °C 30.3 °F /  -0.9 °C 30.15in /  1020.9hPa SE 5.0mph /  8km/h 11.0mph /  17.7km/h 70% 0.00in /  0mm 0 W/m2
19:26 38.7 °F /  3.7 °C 30.8 °F /  -0.7 °C 30.15in /  1020.9hPa SE 5.0mph /  8km/h 11.0mph /  17.7km/h 73% 0.00in /  0mm 0 W/m2
19:32 38.4 °F /  3.6 °C 31.2 °F /  -0.4 °C 30.16in /  1021.2hPa SE 4.0mph /  6.4km/h 4.0mph /  6.4km/h 75% 0.00in /  0mm 0 W/m2
19:50 38.4 °F /  3.6 °C 31.2 °F /  -0.4 °C 30.15in /  1020.9hPa SSE 3.0mph /  4.8km/h 4.0mph /  6.4km/h 75% 0.00in /  0mm 0 W/m2
19:56 38.5 °F /  3.6 °C 30.9 °F /  -0.6 °C 30.15in /  1020.9hPa SE 4.0mph /  6.4km/h 6.0mph /  9.7km/h 74% 0.00in /  0mm 0 W/m2
20:04 38.8 °F /  3.8 °C 31.2 °F /  -0.4 °C 30.15in /  1020.9hPa SSE 5.0mph /  8km/h 6.0mph /  9.7km/h 74% 0.00in /  0mm 0 W/m2
20:08 38.9 °F /  3.8 °C 31.0 °F /  -0.6 °C 30.16in /  1021.2hPa ESE 6.0mph /  9.7km/h 6.0mph /  9.7km/h 73% 0.00in /  0mm 0 W/m2
20:09 38.9 °F /  3.8 °C 31.0 °F /  -0.6 °C 30.16in /  1021.2hPa SSE 5.0mph /  8km/h 5.0mph /  8km/h 73% 0.00in /  0mm 0 W/m2
20:22 38.9 °F /  3.8 °C 30.6 °F /  -0.8 °C 30.15in /  1020.9hPa SE 6.0mph /  9.7km/h 7.0mph /  11.3km/h 72% 0.00in /  0mm 0 W/m2
20:28 38.9 °F /  3.8 °C 30.6 °F /  -0.8 °C 30.15in /  1020.9hPa South 5.0mph /  8km/h 7.0mph /  11.3km/h 72% 0.00in /  0mm 0 W/m2
20:34 39.0 °F /  3.9 °C 30.4 °F /  -0.9 °C 30.15in /  1020.9hPa ESE 5.0mph /  8km/h 8.0mph /  12.9km/h 71% 0.00in /  0mm 0 W/m2
20:54 39.3 °F /  4.1 °C 30.0 °F /  -1.1 °C 30.14in /  1020.5hPa SSE 6.0mph /  9.7km/h 10.0mph /  16.1km/h 69% 0.00in /  0mm 0 W/m2
21:06 39.5 °F /  4.2 °C 29.8 °F /  -1.2 °C 30.15in /  1020.9hPa SSE 5.0mph /  8km/h 7.0mph /  11.3km/h 68% 0.00in /  0mm 0 W/m2
21:12 39.7 °F /  4.3 °C 30.0 °F /  -1.1 °C 30.14in /  1020.5hPa SSE 5.0mph /  8km/h 5.0mph /  8km/h 68% 0.00in /  0mm 0 W/m2
21:18 39.4 °F /  4.1 °C 30.4 °F /  -0.9 °C 30.14in /  1020.5hPa East 3.0mph /  4.8km/h 5.0mph /  8km/h 70% 0.00in /  0mm 0 W/m2
21:24 39.2 °F /  4 °C 30.6 °F /  -0.8 °C 30.14in /  1020.5hPa SSE 2.0mph /  3.2km/h 3.0mph /  4.8km/h 71% 0.00in /  0mm 0 W/m2
21:30 39.3 °F /  4.1 °C 30.7 °F /  -0.7 °C 30.14in /  1020.5hPa SSE 3.0mph /  4.8km/h 3.0mph /  4.8km/h 71% 0.00in /  0mm 0 W/m2
21:35 39.4 °F /  4.1 °C 30.4 °F /  -0.9 °C 30.15in /  1020.9hPa SSE 3.0mph /  4.8km/h 4.0mph /  6.4km/h 70% 0.00in /  0mm 0 W/m2
21:42 39.2 °F /  4 °C 30.9 °F /  -0.6 °C 30.15in /  1020.9hPa East 3.0mph /  4.8km/h 3.0mph /  4.8km/h 72% 0.00in /  0mm 0 W/m2
21:48 38.6 °F /  3.7 °C 31.4 °F /  -0.3 °C 30.14in /  1020.5hPa SE 2.0mph /  3.2km/h 3.0mph /  4.8km/h 75% 0.00in /  0mm 0 W/m2
21:53 38.7 °F /  3.7 °C 31.1 °F /  -0.5 °C 30.13in /  1020.2hPa SSE 3.0mph /  4.8km/h 5.0mph /  8km/h 74% 0.00in /  0mm 0 W/m2
21:59 39.1 °F /  3.9 °C 31.2 °F /  -0.4 °C 30.14in /  1020.5hPa SE 4.0mph /  6.4km/h 4.0mph /  6.4km/h 73% 0.00in /  0mm 0 W/m2
22:06 39.4 °F /  4.1 °C 30.8 °F /  -0.7 °C 30.15in /  1020.9hPa SE 4.0mph /  6.4km/h 6.0mph /  9.7km/h 71% 0.00in /  0mm 0 W/m2
22:12 40.2 °F /  4.6 °C 30.8 °F /  -0.7 °C 30.15in /  1020.9hPa South 5.0mph /  8km/h 5.0mph /  8km/h 69% 0.00in /  0mm 0 W/m2
22:18 40.6 °F /  4.8 °C 30.5 °F /  -0.8 °C 30.14in /  1020.5hPa SSE 6.0mph /  9.7km/h 7.0mph /  11.3km/h 67% 0.00in /  0mm 0 W/m2
22:32 40.8 °F /  4.9 °C 30.3 °F /  -0.9 °C 30.14in /  1020.5hPa SSE 6.0mph /  9.7km/h 6.0mph /  9.7km/h 66% 0.00in /  0mm 0 W/m2
22:40 40.8 °F /  4.9 °C 30.3 °F /  -0.9 °C 30.14in /  1020.5hPa SE 6.0mph /  9.7km/h 6.0mph /  9.7km/h 66% 0.00in /  0mm 0 W/m2
22:48 40.5 °F /  4.7 °C 30.0 °F /  -1.1 °C 30.14in /  1020.5hPa SE 6.0mph /  9.7km/h 7.0mph /  11.3km/h 66% 0.00in /  0mm 0 W/m2
22:54 40.5 °F /  4.7 °C 30.0 °F /  -1.1 °C 30.14in /  1020.5hPa SSE 5.0mph /  8km/h 7.0mph /  11.3km/h 66% 0.00in /  0mm 0 W/m2
23:02 40.3 °F /  4.6 °C 29.8 °F /  -1.2 °C 30.14in /  1020.5hPa SSE 4.0mph /  6.4km/h 5.0mph /  8km/h 66% 0.00in /  0mm 0 W/m2
23:08 40.2 °F /  4.6 °C 29.7 °F /  -1.3 °C 30.14in /  1020.5hPa SSE 4.0mph /  6.4km/h 6.0mph /  9.7km/h 66% 0.00in /  0mm 0 W/m2
23:15 40.0 °F /  4.4 °C 29.6 °F /  -1.3 °C 30.13in /  1020.2hPa SSE 3.0mph /  4.8km/h 4.0mph /  6.4km/h 66% 0.00in /  0mm 0 W/m2
23:22 40.1 °F /  4.5 °C 29.6 °F /  -1.3 °C 30.14in /  1020.5hPa SSE 4.0mph /  6.4km/h 5.0mph /  8km/h 66% 0.00in /  0mm 0 W/m2
23:28 40.2 °F /  4.6 °C 29.7 °F /  -1.3 °C 30.13in /  1020.2hPa SSE 4.0mph /  6.4km/h 7.0mph /  11.3km/h 66% 0.00in /  0mm 0 W/m2
23:34 40.2 °F /  4.6 °C 29.7 °F /  -1.3 °C 30.13in /  1020.2hPa ESE 4.0mph /  6.4km/h 4.0mph /  6.4km/h 66% 0.00in /  0mm 0 W/m2
23:39 40.2 °F /  4.6 °C 30.1 °F /  -1.1 °C 30.14in /  1020.5hPa South 3.0mph /  4.8km/h 3.0mph /  4.8km/h 67% 0.00in /  0mm 0 W/m2
23:46 40.2 °F /  4.6 °C 30.1 °F /  -1.1 °C 30.14in /  1020.5hPa SSW 3.0mph /  4.8km/h 3.0mph /  4.8km/h 67% 0.00in /  0mm 0 W/m2
23:52 40.4 °F /  4.7 °C 30.3 °F /  -0.9 °C 30.14in /  1020.5hPa SSE 3.0mph /  4.8km/h 4.0mph /  6.4km/h 67% 0.00in /  0mm 0 W/m2
23:58 40.4 °F /  4.7 °C 30.3 °F /  -0.9 °C 30.14in /  1020.5hPa South 3.0mph /  4.8km/h 4.0mph /  6.4km/h 67% 0.00in /  0mm 0 W/m2
Country Meadow, Clay, NY, USA
Compliments of Weather Underground - 2 mb